Time;durP1;ratioP1;P1;durP2;ratioP2;P2;SDS_P1;SDS_P2;PMS_P1;PMS_P2;Temp;Humidity;BMP_temperature;BMP_pressure;BME280_temperature;BME280_humidity;BME280_pressure;Samples;Min_cycle;Max_cycle;Signal;HPM_P1;HPM_P2
2022/09/27 00:00:16;;;;;;;4.78;1.95;;;;;;;;;;4984165;28;20022;-71
2022/09/27 00:02:41;;;;;;;5.22;2.03;;;;;;;;;;4981247;28;20019;-69
2022/09/27 00:05:07;;;;;;;5.53;1.83;;;;;;;;;;5003400;28;20029;-70
2022/09/27 00:07:32;;;;;;;7.50;1.98;;;;;;;;;;4992223;28;20384;-69
2022/09/27 00:09:58;;;;;;;5.93;2.22;;;;;;;;;;4989770;28;20028;-67
2022/09/27 00:12:23;;;;;;;8.45;2.42;;;;;;;;;;5002272;28;20076;-70
2022/09/27 00:14:48;;;;;;;4.68;2.05;;;;;;;;;;4989337;28;20665;-71
2022/09/27 00:17:13;;;;;;;4.43;2.15;;;;;;;;;;4995347;28;20033;-71
2022/09/27 00:19:38;;;;;;;6.47;2.20;;;;;;;;;;5009336;28;20056;-71
2022/09/27 00:22:04;;;;;;;5.00;1.83;;;;;;;;;;5008047;28;20211;-70
2022/09/27 00:24:30;;;;;;;5.82;2.05;;;;;;;;;;5009246;28;20042;-68
2022/09/27 00:26:56;;;;;;;9.95;1.90;;;;;;;;;;5001699;28;20049;-69
2022/09/27 00:29:21;;;;;;;4.57;1.60;;;;;;;;;;4989001;28;20444;-71
2022/09/27 00:31:46;;;;;;;3.72;1.60;;;;;;;;;;5001439;28;20101;-68
2022/09/27 00:34:17;;;;;;;9.57;2.47;;;;;;;;;;4988147;28;20109;-70
2022/09/27 00:36:42;;;;;;;8.95;1.80;;;;;;;;;;5007521;28;20022;-72
2022/09/27 00:39:08;;;;;;;5.00;2.00;;;;;;;;;;4990844;28;20516;-70
2022/09/27 00:41:34;;;;;;;6.30;2.50;;;;;;;;;;4986933;28;20515;-69
2022/09/27 00:44:01;;;;;;;5.72;2.25;;;;;;;;;;5001161;28;20400;-71
2022/09/27 00:46:32;;;;;;;8.85;2.15;;;;;;;;;;4989308;28;20053;-70
2022/09/27 00:49:26;;;;;;;7.00;2.40;;;;;;;;;;5006662;28;20076;-68
2022/09/27 00:51:58;;;;;;;6.18;2.33;;;;;;;;;;4999282;28;20034;-68
2022/09/27 00:54:25;;;;;;;10.52;2.65;;;;;;;;;;5012570;28;20022;-70
2022/09/27 00:56:50;;;;;;;6.13;2.42;;;;;;;;;;5009259;28;20040;-71
2022/09/27 00:59:19;;;;;;;6.57;2.30;;;;;;;;;;4992517;28;20030;-67
2022/09/27 01:01:44;;;;;;;11.55;2.83;;;;;;;;;;4982868;28;20054;-71
2022/09/27 01:04:11;;;;;;;8.35;1.73;;;;;;;;;;4992933;28;20523;-68
2022/09/27 01:06:37;;;;;;;8.50;2.13;;;;;;;;;;5001730;28;20022;-67
2022/09/27 01:09:03;;;;;;;5.55;1.92;;;;;;;;;;5009364;28;20024;-69
2022/09/27 01:11:31;;;;;;;5.22;2.38;;;;;;;;;;5001513;28;20365;-70
2022/09/27 01:13:56;;;;;;;5.30;2.00;;;;;;;;;;4998027;28;20022;-70
2022/09/27 01:16:26;;;;;;;6.90;1.92;;;;;;;;;;5009072;28;20041;-70
2022/09/27 01:18:55;;;;;;;3.65;1.90;;;;;;;;;;5008148;28;20496;-70
2022/09/27 01:21:32;;;;;;;5.80;2.42;;;;;;;;;;5003216;28;20025;-70
2022/09/27 01:24:27;;;;;;;7.50;2.10;;;;;;;;;;4998908;28;20101;-69
2022/09/27 01:27:01;;;;;;;5.50;1.88;;;;;;;;;;5004796;28;20038;-70
2022/09/27 01:29:26;;;;;;;5.55;1.90;;;;;;;;;;4986174;28;20101;-72
2022/09/27 01:31:52;;;;;;;4.43;1.90;;;;;;;;;;5004878;28;20093;-68
2022/09/27 01:34:34;;;;;;;12.30;2.35;;;;;;;;;;5002808;28;20025;-73
2022/09/27 01:37:23;;;;;;;7.72;2.13;;;;;;;;;;5008432;28;20029;-72
2022/09/27 01:40:11;;;;;;;5.32;1.80;;;;;;;;;;4998394;28;20350;-67
2022/09/27 01:42:38;;;;;;;5.20;2.30;;;;;;;;;;5005943;28;20018;-71
2022/09/27 01:45:29;;;;;;;13.68;1.95;;;;;;;;;;5004835;28;20077;-71
2022/09/27 01:47:56;;;;;;;4.82;1.60;;;;;;;;;;5002831;28;20030;-67
2022/09/27 01:50:21;;;;;;;6.43;1.77;;;;;;;;;;5010226;28;20022;-67
2022/09/27 01:52:50;;;;;;;6.97;1.70;;;;;;;;;;4998408;28;20022;-69
2022/09/27 01:55:16;;;;;;;6.47;2.43;;;;;;;;;;5010801;28;20909;-68
2022/09/27 01:57:44;;;;;;;4.25;1.73;;;;;;;;;;5005764;28;20280;-69
2022/09/27 02:00:10;;;;;;;3.30;1.60;;;;;;;;;;4985633;28;20022;-70
2022/09/27 02:02:38;;;;;;;6.07;1.80;;;;;;;;;;4981187;28;20827;-69
2022/09/27 02:05:06;;;;;;;2.97;1.48;;;;;;;;;;5004036;28;20014;-70
2022/09/27 02:07:33;;;;;;;3.25;1.60;;;;;;;;;;5011018;28;20022;-70
2022/09/27 02:10:01;;;;;;;4.93;1.80;;;;;;;;;;5000850;28;20108;-71
2022/09/27 02:12:30;;;;;;;5.75;1.55;;;;;;;;;;5004288;28;20025;-70
2022/09/27 02:14:59;;;;;;;3.13;1.35;;;;;;;;;;4997431;28;20022;-72
2022/09/27 02:17:24;;;;;;;;;;;;;;;;;;5004216;28;20027;-69
2022/09/27 02:20:08;;;;;;;3.60;1.42;;;;;;;;;;4992017;28;19906;-71
2022/09/27 02:22:45;;;;;;;4.07;1.63;;;;;;;;;;4997331;28;20111;-71
2022/09/27 02:25:23;;;;;;;10.43;1.70;;;;;;;;;;5008423;28;20475;-68
2022/09/27 02:27:54;;;;;;;5.32;1.65;;;;;;;;;;4989522;28;20030;-69
2022/09/27 02:30:19;;;;;;;3.88;1.50;;;;;;;;;;4995186;28;20343;-66
2022/09/27 02:32:44;;;;;;;8.52;2.28;;;;;;;;;;5000342;28;20030;-70
2022/09/27 02:35:16;;;;;;;4.43;1.85;;;;;;;;;;5007982;28;20025;-69
2022/09/27 02:37:41;;;;;;;4.53;2.00;;;;;;;;;;5009742;28;20014;-70
2022/09/27 02:40:07;;;;;;;3.67;1.52;;;;;;;;;;4987434;28;20022;-71
2022/09/27 02:42:33;;;;;;;3.72;1.40;;;;;;;;;;4990567;28;20018;-71
2022/09/27 02:44:59;;;;;;;4.05;1.55;;;;;;;;;;5003649;28;20022;-69
2022/09/27 02:47:43;;;;;;;8.98;1.60;;;;;;;;;;4987768;28;20033;-70
2022/09/27 02:50:35;;;;;;;6.40;1.75;;;;;;;;;;4996447;28;20033;-70
2022/09/27 02:53:18;;;;;;;2.80;1.30;;;;;;;;;;4996977;28;20630;-67
2022/09/27 02:56:02;;;;;;;3.53;1.80;;;;;;;;;;4997832;28;20030;-71
2022/09/27 02:58:27;;;;;;;3.40;1.42;;;;;;;;;;5002138;28;20113;-70
2022/09/27 03:00:55;;;;;;;6.20;1.93;;;;;;;;;;4993192;28;20113;-70
2022/09/27 03:03:26;;;;;;;2.93;1.57;;;;;;;;;;5009876;28;20243;-68
2022/09/27 03:05:53;;;;;;;4.72;1.35;;;;;;;;;;5007182;28;20764;-68
2022/09/27 03:08:19;;;;;;;6.07;1.65;;;;;;;;;;4994224;28;20476;-71
2022/09/27 03:10:44;;;;;;;4.28;1.50;;;;;;;;;;5006754;28;20022;-71
2022/09/27 03:13:10;;;;;;;4.20;1.75;;;;;;;;;;4998546;28;20049;-73
2022/09/27 03:15:35;;;;;;;3.63;1.63;;;;;;;;;;5003325;28;20037;-69
2022/09/27 03:18:00;;;;;;;2.78;1.70;;;;;;;;;;4999404;28;20014;-69
2022/09/27 03:20:25;;;;;;;3.53;1.63;;;;;;;;;;5005174;28;20048;-70
2022/09/27 03:22:51;;;;;;;3.63;1.30;;;;;;;;;;4999769;28;20379;-68
2022/09/27 03:25:16;;;;;;;5.75;1.67;;;;;;;;;;4996650;28;20030;-70
2022/09/27 03:27:42;;;;;;;2.33;1.38;;;;;;;;;;5003220;28;20026;-69
2022/09/27 03:30:09;;;;;;;2.35;1.30;;;;;;;;;;4988497;28;20030;-70
2022/09/27 03:32:34;;;;;;;6.38;1.95;;;;;;;;;;4999364;28;20043;-68
2022/09/27 03:34:59;;;;;;;3.08;1.30;;;;;;;;;;5009897;28;20072;-68
2022/09/27 03:37:28;;;;;;;3.85;1.45;;;;;;;;;;5008734;28;20024;-70
2022/09/27 03:39:53;;;;;;;3.53;1.30;;;;;;;;;;5009848;28;20030;-70
2022/09/27 03:42:18;;;;;;;4.93;1.10;;;;;;;;;;5008966;28;20025;-69
2022/09/27 03:44:44;;;;;;;7.03;1.35;;;;;;;;;;4993929;28;20445;-67
2022/09/27 03:47:09;;;;;;;3.50;1.55;;;;;;;;;;4988585;28;20579;-69
2022/09/27 03:49:34;;;;;;;3.53;1.40;;;;;;;;;;4989877;28;20496;-67
2022/09/27 03:51:59;;;;;;;3.65;1.20;;;;;;;;;;4999563;28;20033;-68
2022/09/27 03:54:25;;;;;;;5.90;1.27;;;;;;;;;;4995107;28;20037;-67
2022/09/27 03:56:50;;;;;;;3.35;1.35;;;;;;;;;;5006776;28;20026;-68
2022/09/27 03:59:16;;;;;;;3.22;1.58;;;;;;;;;;4998698;28;20022;-68
2022/09/27 04:01:42;;;;;;;2.20;1.10;;;;;;;;;;4981041;28;20021;-69
2022/09/27 04:04:07;;;;;;;4.05;1.20;;;;;;;;;;4988456;28;20492;-71
2022/09/27 04:06:33;;;;;;;1.80;1.13;;;;;;;;;;5008938;28;20032;-68
2022/09/27 04:08:59;;;;;;;2.40;1.10;;;;;;;;;;4993184;28;20028;-66
2022/09/27 04:11:24;;;;;;;3.58;1.08;;;;;;;;;;4990340;28;20034;-68
2022/09/27 04:13:49;;;;;;;3.13;1.20;;;;;;;;;;4999482;28;20030;-67
2022/09/27 04:16:15;;;;;;;8.23;1.70;;;;;;;;;;5010702;28;20096;-69
2022/09/27 04:18:40;;;;;;;6.00;1.13;;;;;;;;;;5007519;28;20014;-68
2022/09/27 04:21:05;;;;;;;4.00;1.75;;;;;;;;;;4998736;28;20081;-71
2022/09/27 04:23:31;;;;;;;6.22;1.67;;;;;;;;;;5012045;28;20026;-70
2022/09/27 04:25:56;;;;;;;7.20;1.27;;;;;;;;;;4992181;28;20549;-68
2022/09/27 04:28:22;;;;;;;3.92;1.65;;;;;;;;;;4993027;28;20432;-71
2022/09/27 04:30:47;;;;;;;3.15;1.30;;;;;;;;;;4999920;28;20337;-71
2022/09/27 04:33:13;;;;;;;6.60;2.10;;;;;;;;;;5010669;28;20026;-69
2022/09/27 04:38:22;;;;;;;4.38;1.70;;;;;;;;;;5010486;28;20029;-68
2022/09/27 04:40:49;;;;;;;3.80;1.40;;;;;;;;;;4984431;28;20031;-70
2022/09/27 04:43:14;;;;;;;6.30;1.83;;;;;;;;;;5006065;28;20053;-68
2022/09/27 04:45:39;;;;;;;6.50;1.73;;;;;;;;;;5002652;28;20515;-68
2022/09/27 04:48:05;;;;;;;7.13;1.98;;;;;;;;;;5007217;28;20034;-67
2022/09/27 04:50:31;;;;;;;7.93;2.10;;;;;;;;;;4992437;28;20022;-68
2022/09/27 04:52:56;;;;;;;5.07;2.03;;;;;;;;;;5005549;28;20488;-67
2022/09/27 04:55:21;;;;;;;6.78;1.85;;;;;;;;;;4992193;28;20031;-70
2022/09/27 04:57:47;;;;;;;7.68;2.10;;;;;;;;;;5021429;23;20052;-69
2022/09/27 05:00:12;;;;;;;5.55;2.35;;;;;;;;;;5022582;28;20336;-72
2022/09/27 05:02:38;;;;;;;6.43;2.03;;;;;;;;;;5030447;28;20414;-70
2022/09/27 05:05:05;;;;;;;6.88;1.73;;;;;;;;;;5032254;28;20075;-71
2022/09/27 05:07:32;;;;;;;7.22;1.67;;;;;;;;;;5031701;28;20360;-67
2022/09/27 05:09:57;;;;;;;6.82;2.47;;;;;;;;;;5032780;28;20089;-69
2022/09/27 05:12:25;;;;;;;8.65;2.85;;;;;;;;;;5030179;28;20117;-70
2022/09/27 05:14:50;;;;;;;3.50;1.57;;;;;;;;;;5032141;28;20671;-68
2022/09/27 05:17:17;;;;;;;3.75;1.73;;;;;;;;;;5031011;28;20340;-72
2022/09/27 05:19:42;;;;;;;7.38;2.47;;;;;;;;;;5032619;28;20026;-71
2022/09/27 05:22:08;;;;;;;3.00;1.40;;;;;;;;;;5031769;28;20029;-69
2022/09/27 05:24:33;;;;;;;3.30;1.67;;;;;;;;;;5030771;28;20021;-74
2022/09/27 05:26:59;;;;;;;3.58;1.50;;;;;;;;;;5029758;28;20041;-69
2022/09/27 05:29:24;;;;;;;4.10;1.98;;;;;;;;;;5028145;28;20083;-72
2022/09/27 05:31:49;;;;;;;8.63;1.48;;;;;;;;;;5028504;28;20125;-71
2022/09/27 05:34:15;;;;;;;3.88;1.58;;;;;;;;;;5031153;28;20100;-72
2022/09/27 05:36:40;;;;;;;3.92;1.55;;;;;;;;;;5035604;28;20472;-70
2022/09/27 05:39:06;;;;;;;4.10;1.70;;;;;;;;;;5034745;28;20014;-72
2022/09/27 05:41:31;;;;;;;7.18;1.80;;;;;;;;;;5030054;28;20025;-71
2022/09/27 05:43:57;;;;;;;5.72;1.48;;;;;;;;;;5031472;28;20049;-73
2022/09/27 05:46:22;;;;;;;4.45;1.60;;;;;;;;;;5031917;28;20029;-72
2022/09/27 05:48:47;;;;;;;14.98;2.83;;;;;;;;;;5029204;28;20558;-69
2022/09/27 05:51:13;;;;;;;4.20;1.60;;;;;;;;;;5043756;28;20022;-72
2022/09/27 05:53:38;;;;;;;7.75;2.45;;;;;;;;;;5031690;28;20380;-71
2022/09/27 05:56:03;;;;;;;8.82;2.10;;;;;;;;;;5031283;28;20395;-70
2022/09/27 05:58:29;;;;;;;5.38;1.70;;;;;;;;;;5030039;28;20025;-69
2022/09/27 06:00:54;;;;;;;7.38;1.75;;;;;;;;;;5029151;28;20483;-70
2022/09/27 06:03:19;;;;;;;6.97;2.28;;;;;;;;;;5031545;28;20101;-69
2022/09/27 06:05:44;;;;;;;8.43;1.73;;;;;;;;;;5031834;28;20032;-72
2022/09/27 06:08:11;;;;;;;7.50;1.83;;;;;;;;;;5030746;28;20075;-71
2022/09/27 06:10:36;;;;;;;3.20;1.48;;;;;;;;;;5029643;28;20415;-68
2022/09/27 06:13:03;;;;;;;8.25;1.83;;;;;;;;;;5031303;28;20018;-70
2022/09/27 06:15:30;;;;;;;3.90;1.52;;;;;;;;;;5029951;28;20687;-68
2022/09/27 06:17:55;;;;;;;6.07;2.35;;;;;;;;;;5030156;28;20041;-73
2022/09/27 06:20:20;;;;;;;9.23;3.30;;;;;;;;;;5030182;28;20044;-72
2022/09/27 06:22:46;;;;;;;7.82;3.20;;;;;;;;;;5031066;28;20124;-70
2022/09/27 06:25:11;;;;;;;12.70;3.80;;;;;;;;;;5030592;28;20128;-72
2022/09/27 06:27:36;;;;;;;9.70;3.13;;;;;;;;;;5031141;28;20083;-71
2022/09/27 06:30:02;;;;;;;8.70;3.30;;;;;;;;;;5031323;28;20501;-72
2022/09/27 06:32:27;;;;;;;7.47;2.53;;;;;;;;;;5031184;28;20032;-69
2022/09/27 06:34:53;;;;;;;8.75;3.08;;;;;;;;;;5030869;28;20045;-72
2022/09/27 06:37:18;;;;;;;3.80;1.65;;;;;;;;;;5030083;28;20120;-71
2022/09/27 06:39:43;;;;;;;4.40;1.70;;;;;;;;;;5026864;28;20052;-73
2022/09/27 06:42:10;;;;;;;6.50;1.90;;;;;;;;;;5030784;28;20029;-72
2022/09/27 06:44:35;;;;;;;12.10;1.80;;;;;;;;;;5027230;28;20504;-68
2022/09/27 06:47:00;;;;;;;6.38;2.00;;;;;;;;;;5039560;28;20486;-72
2022/09/27 06:49:25;;;;;;;6.05;2.00;;;;;;;;;;5044386;28;20025;-70
2022/09/27 06:51:51;;;;;;;6.35;2.13;;;;;;;;;;5037036;28;20017;-70
2022/09/27 06:54:16;;;;;;;2.63;1.20;;;;;;;;;;5038377;28;20017;-70
2022/09/27 06:56:42;;;;;;;4.65;1.60;;;;;;;;;;5029991;28;20164;-73
2022/09/27 07:01:51;;;;;;;8.65;1.60;;;;;;;;;;5030932;28;20072;-72
2022/09/27 07:04:17;;;;;;;5.82;1.90;;;;;;;;;;5037160;28;20057;-69
2022/09/27 07:06:43;;;;;;;4.05;1.48;;;;;;;;;;5033822;28;20013;-72
2022/09/27 07:09:08;;;;;;;8.40;1.85;;;;;;;;;;5040381;28;20032;-74
2022/09/27 07:11:35;;;;;;;4.20;1.42;;;;;;;;;;5035441;28;20028;-71
2022/09/27 07:14:00;;;;;;;3.58;1.33;;;;;;;;;;5033144;28;20051;-71
2022/09/27 07:16:26;;;;;;;4.10;1.60;;;;;;;;;;5027610;28;20499;-72
2022/09/27 07:18:51;;;;;;;2.90;1.73;;;;;;;;;;5033048;28;20017;-72
2022/09/27 07:21:16;;;;;;;6.68;2.33;;;;;;;;;;5040561;28;20055;-70
2022/09/27 07:23:42;;;;;;;3.92;1.27;;;;;;;;;;5045937;28;20088;-71
2022/09/27 07:26:09;;;;;;;6.80;2.08;;;;;;;;;;5035447;28;20105;-72
2022/09/27 07:28:34;;;;;;;4.18;1.30;;;;;;;;;;5039352;28;20025;-71
2022/09/27 07:31:01;;;;;;;9.00;1.38;;;;;;;;;;5035148;28;20051;-71
2022/09/27 07:33:26;;;;;;;4.00;1.23;;;;;;;;;;5030633;28;20045;-71
2022/09/27 07:35:51;;;;;;;4.40;1.77;;;;;;;;;;5031748;28;20032;-71
2022/09/27 07:38:17;;;;;;;7.03;1.15;;;;;;;;;;5037119;28;20017;-70
2022/09/27 07:40:42;;;;;;;5.28;1.02;;;;;;;;;;5036046;28;20029;-70
2022/09/27 07:43:08;;;;;;;4.28;1.30;;;;;;;;;;5030265;28;20021;-69
2022/09/27 07:45:33;;;;;;;8.45;1.63;;;;;;;;;;5028793;28;20025;-73
2022/09/27 07:47:59;;;;;;;9.68;1.50;;;;;;;;;;5033886;28;20021;-70
2022/09/27 07:50:25;;;;;;;4.47;1.67;;;;;;;;;;5035749;28;20021;-72
2022/09/27 07:52:50;;;;;;;3.83;1.35;;;;;;;;;;5032533;28;20037;-75
2022/09/27 07:55:16;;;;;;;5.75;1.15;;;;;;;;;;5025831;28;20485;-71
2022/09/27 07:57:43;;;;;;;6.72;2.22;;;;;;;;;;5022281;28;20275;-70
2022/09/27 08:00:10;;;;;;;3.13;1.15;;;;;;;;;;5025256;28;20040;-72
2022/09/27 08:02:35;;;;;;;6.65;0.90;;;;;;;;;;5022987;28;20078;-69
2022/09/27 08:05:01;;;;;;;3.45;1.08;;;;;;;;;;5022252;28;20116;-73
2022/09/27 08:07:26;;;;;;;4.18;1.10;;;;;;;;;;5021183;28;20661;-73
2022/09/27 08:09:51;;;;;;;4.72;1.00;;;;;;;;;;5022667;28;20116;-72
2022/09/27 08:12:17;;;;;;;1.10;0.80;;;;;;;;;;5022902;28;20498;-68
2022/09/27 08:14:42;;;;;;;3.95;0.90;;;;;;;;;;5021736;28;20402;-70
2022/09/27 08:17:10;;;;;;;3.20;1.00;;;;;;;;;;5020221;28;20034;-70
2022/09/27 08:19:36;;;;;;;2.75;0.95;;;;;;;;;;5034819;28;20117;-72
2022/09/27 08:22:04;;;;;;;6.25;1.38;;;;;;;;;;5037479;28;20140;-72
2022/09/27 08:24:29;;;;;;;3.20;1.17;;;;;;;;;;5022862;28;20086;-72
2022/09/27 08:26:54;;;;;;;4.35;1.00;;;;;;;;;;5020551;28;20029;-70
2022/09/27 08:29:20;;;;;;;1.88;0.77;;;;;;;;;;5021334;28;20029;-69
2022/09/27 08:31:45;;;;;;;4.32;1.20;;;;;;;;;;5021950;28;20018;-70
2022/09/27 08:34:10;;;;;;;2.67;1.02;;;;;;;;;;5021497;28;20492;-71
2022/09/27 08:36:36;;;;;;;3.03;1.10;;;;;;;;;;5020974;28;20112;-74
2022/09/27 08:39:02;;;;;;;3.72;1.27;;;;;;;;;;5021252;28;20029;-70
2022/09/27 08:41:33;;;;;;;3.67;0.93;;;;;;;;;;5021258;28;20022;-70
2022/09/27 08:43:58;;;;;;;3.40;1.00;;;;;;;;;;5021963;28;20040;-72
2022/09/27 08:46:43;;;;;;;2.53;1.25;;;;;;;;;;5019474;28;20018;-70
2022/09/27 08:49:13;;;;;;;5.55;1.40;;;;;;;;;;5022304;28;20628;-70
2022/09/27 08:51:39;;;;;;;2.17;0.93;;;;;;;;;;5023798;28;20038;-71
2022/09/27 08:54:06;;;;;;;1.88;1.00;;;;;;;;;;5023411;28;20113;-72
2022/09/27 08:56:32;;;;;;;7.35;1.10;;;;;;;;;;5021347;28;20068;-73
2022/09/27 08:59:01;;;;;;;1.50;0.95;;;;;;;;;;5022206;28;20322;-72
2022/09/27 09:01:26;;;;;;;4.32;1.10;;;;;;;;;;5022744;28;20039;-73
2022/09/27 09:03:56;;;;;;;1.67;0.93;;;;;;;;;;5022084;28;20443;-72
2022/09/27 09:06:32;;;;;;;1.90;1.00;;;;;;;;;;5019498;28;20060;-71
2022/09/27 09:09:00;;;;;;;1.45;0.77;;;;;;;;;;5025865;28;20029;-72
2022/09/27 09:14:29;;;;;;;4.53;0.65;;;;;;;;;;5024143;28;20031;-72
2022/09/27 09:16:54;;;;;;;;;;;;;;;;;;5026304;28;20024;-73
2022/09/27 09:19:31;;;;;;;4.35;1.10;;;;;;;;;;5025929;28;19913;-71
2022/09/27 09:22:00;;;;;;;1.05;0.70;;;;;;;;;;5041124;28;20371;-71
2022/09/27 09:24:25;;;;;;;2.30;0.80;;;;;;;;;;5040730;28;20048;-73
2022/09/27 09:26:58;;;;;;;5.07;0.75;;;;;;;;;;5024571;28;21214;-73
2022/09/27 09:29:42;;;;;;;1.77;0.68;;;;;;;;;;5027522;28;20049;-72
2022/09/27 09:32:10;;;;;;;1.67;0.80;;;;;;;;;;5046173;28;20630;-73
2022/09/27 09:34:38;;;;;;;4.60;1.02;;;;;;;;;;5043897;28;20056;-72
2022/09/27 09:37:15;;;;;;;3.80;1.27;;;;;;;;;;5030463;28;20025;-73
2022/09/27 09:39:44;;;;;;;1.10;0.60;;;;;;;;;;5027849;28;20016;-73
2022/09/27 09:42:17;;;;;;;1.67;0.60;;;;;;;;;;5028113;28;20021;-72
2022/09/27 09:44:57;;;;;;;2.38;0.70;;;;;;;;;;5026233;28;20033;-74
2022/09/27 09:47:25;;;;;;;0.70;0.68;;;;;;;;;;5024684;28;20029;-73
2022/09/27 09:49:54;;;;;;;0.68;0.68;;;;;;;;;;5027023;28;20037;-72
2022/09/27 09:52:22;;;;;;;3.63;0.93;;;;;;;;;;5026945;28;20033;-76
2022/09/27 09:55:01;;;;;;;1.17;0.93;;;;;;;;;;5026682;28;20096;-72
2022/09/27 09:57:26;;;;;;;1.25;0.77;;;;;;;;;;5023066;28;20120;-73
2022/09/27 09:59:57;;;;;;;1.67;0.80;;;;;;;;;;5026173;28;20117;-74
2022/09/27 10:02:22;;;;;;;1.08;0.60;;;;;;;;;;5022842;28;20382;-74
2022/09/27 10:04:50;;;;;;;1.90;0.93;;;;;;;;;;5032172;28;20096;-73
2022/09/27 10:07:19;;;;;;;6.82;1.23;;;;;;;;;;5030507;28;20096;-72
2022/09/27 10:09:44;;;;;;;15.70;1.38;;;;;;;;;;5032515;28;20029;-71
2022/09/27 10:12:09;;;;;;;7.43;1.02;;;;;;;;;;5031788;28;20025;-71
2022/09/27 10:14:35;;;;;;;2.88;0.88;;;;;;;;;;5031366;28;20040;-74
2022/09/27 10:17:03;;;;;;;5.65;1.27;;;;;;;;;;5031854;28;20491;-72
2022/09/27 10:19:30;;;;;;;2.95;0.75;;;;;;;;;;5031127;28;20096;-69
2022/09/27 10:21:59;;;;;;;3.15;1.30;;;;;;;;;;5032083;28;20438;-72
2022/09/27 10:24:24;;;;;;;;;;;;;;;;;;5031452;28;20018;-71
2022/09/27 10:26:50;;;;;;;0.98;0.70;;;;;;;;;;5030715;28;19919;-71
2022/09/27 10:29:35;;;;;;;2.03;0.80;;;;;;;;;;5031294;28;20025;-73
2022/09/27 10:32:03;;;;;;;1.58;0.88;;;;;;;;;;5030707;28;20037;-72
2022/09/27 10:34:37;;;;;;;1.52;0.85;;;;;;;;;;5030983;28;20431;-73
2022/09/27 10:37:05;;;;;;;1.13;0.68;;;;;;;;;;5030609;28;20021;-70
2022/09/27 10:39:31;;;;;;;1.30;0.88;;;;;;;;;;5018999;28;20040;-74
2022/09/27 10:41:56;;;;;;;4.35;0.90;;;;;;;;;;5032245;28;20387;-72
2022/09/27 10:44:25;;;;;;;3.72;0.90;;;;;;;;;;5031601;28;20024;-72
2022/09/27 10:46:52;;;;;;;2.75;0.90;;;;;;;;;;5031645;28;20029;-73
2022/09/27 10:49:23;;;;;;;1.65;0.93;;;;;;;;;;5031373;28;20108;-74
2022/09/27 10:51:51;;;;;;;1.50;0.63;;;;;;;;;;5030199;28;20093;-72
2022/09/27 10:54:21;;;;;;;0.90;0.65;;;;;;;;;;5031657;28;20022;-73
2022/09/27 10:56:53;;;;;;;3.85;0.90;;;;;;;;;;5029854;28;20109;-74
2022/09/27 10:59:19;;;;;;;1.70;0.93;;;;;;;;;;5053731;22;20099;-69
2022/09/27 11:01:45;;;;;;;3.50;1.38;;;;;;;;;;5049506;28;20097;-69
2022/09/27 11:04:20;;;;;;;2.40;1.00;;;;;;;;;;5049473;28;20087;-69
2022/09/27 11:06:45;;;;;;;3.92;1.40;;;;;;;;;;5048855;28;20021;-69
2022/09/27 11:09:17;;;;;;;4.50;1.55;;;;;;;;;;5049781;28;20020;-73
2022/09/27 11:11:44;;;;;;;3.13;1.20;;;;;;;;;;5049187;28;20390;-70
2022/09/27 11:14:15;;;;;;;1.75;1.10;;;;;;;;;;5033316;28;20418;-69
2022/09/27 11:16:58;;;;;;;2.08;0.98;;;;;;;;;;5030723;28;20413;-71
2022/09/27 11:19:26;;;;;;;3.97;1.60;;;;;;;;;;5037175;28;20037;-72
2022/09/27 11:21:52;;;;;;;2.27;1.03;;;;;;;;;;5034715;28;20019;-68
2022/09/27 11:24:36;;;;;;;3.92;0.98;;;;;;;;;;5038117;28;20017;-70
2022/09/27 11:27:26;;;;;;;2.67;1.10;;;;;;;;;;5028843;28;20029;-72
2022/09/27 11:29:51;;;;;;;2.08;0.85;;;;;;;;;;5032001;28;20147;-71
2022/09/27 11:32:16;;;;;;;2.13;0.93;;;;;;;;;;5020024;28;20054;-70
2022/09/27 11:35:01;;;;;;;1.10;0.85;;;;;;;;;;5047555;28;20023;-70
2022/09/27 11:37:45;;;;;;;2.95;1.10;;;;;;;;;;5035385;28;20470;-70
2022/09/27 11:40:27;;;;;;;2.28;0.82;;;;;;;;;;5039587;28;20020;-70
2022/09/27 11:42:52;;;;;;;3.45;1.42;;;;;;;;;;5047553;28;20059;-70
2022/09/27 11:45:20;;;;;;;2.97;0.80;;;;;;;;;;5040134;28;20048;-69
2022/09/27 11:48:04;;;;;;;3.83;0.90;;;;;;;;;;5028711;28;20020;-70
2022/09/27 11:50:47;;;;;;;3.70;1.75;;;;;;;;;;5029228;28;20018;-70
2022/09/27 11:53:24;;;;;;;3.00;1.02;;;;;;;;;;5039564;28;20012;-68
2022/09/27 11:55:49;;;;;;;0.85;0.60;;;;;;;;;;5034937;28;20017;-70
2022/09/27 11:58:50;;;;;;;2.23;1.03;;;;;;;;;;5043074;28;20131;-70
2022/09/27 12:01:21;;;;;;;2.67;1.25;;;;;;;;;;4937260;29;20403;-68
2022/09/27 12:04:04;;;;;;;1.50;0.90;;;;;;;;;;5027108;28;20044;-70
2022/09/27 12:06:36;;;;;;;3.42;1.10;;;;;;;;;;5035046;28;20029;-71
2022/09/27 12:09:07;;;;;;;3.53;1.30;;;;;;;;;;5021987;28;20151;-73
2022/09/27 12:11:37;;;;;;;3.67;1.30;;;;;;;;;;5034854;28;20021;-71
2022/09/27 12:14:03;;;;;;;2.45;1.10;;;;;;;;;;5037843;28;20060;-70
2022/09/27 12:16:29;;;;;;;5.33;1.37;;;;;;;;;;5027467;28;20105;-71
2022/09/27 12:18:55;;;;;;;3.58;1.40;;;;;;;;;;5027864;28;20624;-70
2022/09/27 12:21:20;;;;;;;5.18;1.38;;;;;;;;;;5028918;28;20100;-69
2022/09/27 12:23:50;;;;;;;4.90;1.30;;;;;;;;;;5040506;28;20418;-71
2022/09/27 12:26:27;;;;;;;4.57;1.30;;;;;;;;;;5042044;28;20055;-71
2022/09/27 12:28:58;;;;;;;3.65;1.00;;;;;;;;;;5039417;28;20375;-71
2022/09/27 12:31:32;;;;;;;2.00;0.93;;;;;;;;;;5031780;28;20024;-71
2022/09/27 12:34:01;;;;;;;1.83;1.00;;;;;;;;;;5046985;28;20048;-68
2022/09/27 12:36:29;;;;;;;1.60;0.90;;;;;;;;;;5047270;28;20032;-71
2022/09/27 12:39:14;;;;;;;3.23;1.20;;;;;;;;;;5022654;28;20025;-71
2022/09/27 12:41:43;;;;;;;1.85;0.93;;;;;;;;;;5026115;28;20112;-71
2022/09/27 12:44:10;;;;;;;4.57;1.33;;;;;;;;;;5043769;28;20033;-70
2022/09/27 12:46:35;;;;;;;1.95;0.98;;;;;;;;;;5050204;28;20083;-70
2022/09/27 12:49:20;;;;;;;2.57;1.10;;;;;;;;;;5050652;28;20490;-70
2022/09/27 12:51:59;;;;;;;4.78;1.05;;;;;;;;;;5038584;28;20255;-72
2022/09/27 12:54:35;;;;;;;6.32;1.20;;;;;;;;;;5030756;28;20026;-70
2022/09/27 12:57:00;;;;;;;3.45;1.15;;;;;;;;;;5013615;28;20040;-70
2022/09/27 12:59:44;;;;;;;2.30;0.70;;;;;;;;;;4984890;28;1081823;-72
2022/09/27 13:02:20;;;;;;;3.45;1.13;;;;;;;;;;5018962;28;20096;-71
2022/09/27 13:05:04;;;;;;;4.63;1.38;;;;;;;;;;5039539;28;20386;-73
2022/09/27 13:07:48;;;;;;;2.92;1.10;;;;;;;;;;5021500;28;20087;-70
2022/09/27 13:10:31;;;;;;;9.65;1.00;;;;;;;;;;5044915;28;20045;-71
2022/09/27 13:12:59;;;;;;;3.95;0.98;;;;;;;;;;5031700;28;20320;-69
2022/09/27 13:15:32;;;;;;;4.53;1.10;;;;;;;;;;5036307;28;20040;-70
2022/09/27 13:18:00;;;;;;;2.55;1.30;;;;;;;;;;5036566;28;20043;-69
2022/09/27 13:20:45;;;;;;;7.20;1.25;;;;;;;;;;5044717;28;20010;-70
2022/09/27 13:23:16;;;;;;;3.33;1.00;;;;;;;;;;5035661;28;20108;-71
2022/09/27 13:25:47;;;;;;;2.40;1.02;;;;;;;;;;5051361;28;20017;-69
2022/09/27 13:28:27;;;;;;;3.78;1.08;;;;;;;;;;5042115;28;20010;-69
2022/09/27 13:30:53;;;;;;;4.07;1.35;;;;;;;;;;5038299;28;20021;-72
2022/09/27 13:33:18;;;;;;;3.15;1.83;;;;;;;;;;5044754;28;20511;-71
2022/09/27 13:36:03;;;;;;;6.25;1.55;;;;;;;;;;5031755;28;20580;-70
2022/09/27 13:38:28;;;;;;;7.57;1.33;;;;;;;;;;5031744;28;20026;-70
2022/09/27 13:41:12;;;;;;;3.75;1.40;;;;;;;;;;5027144;28;20018;-68
2022/09/27 13:43:43;;;;;;;2.35;1.27;;;;;;;;;;5041831;28;20009;-71
2022/09/27 13:46:14;;;;;;;4.38;1.75;;;;;;;;;;5050970;28;20044;-71
2022/09/27 13:48:42;;;;;;;2.83;1.17;;;;;;;;;;5050646;28;20025;-71
2022/09/27 13:51:27;;;;;;;4.20;1.42;;;;;;;;;;5050912;28;20104;-70
2022/09/27 13:54:00;;;;;;;4.28;1.45;;;;;;;;;;5047723;28;20071;-72
2022/09/27 13:56:47;;;;;;;2.97;1.40;;;;;;;;;;5012358;28;20032;-70
2022/09/27 13:59:15;;;;;;;3.78;1.70;;;;;;;;;;5043873;28;20122;-72
2022/09/27 14:01:42;;;;;;;13.45;1.65;;;;;;;;;;5030792;28;20030;-70
2022/09/27 14:04:10;;;;;;;4.38;1.48;;;;;;;;;;5036663;28;20044;-71
2022/09/27 14:06:41;;;;;;;3.63;1.60;;;;;;;;;;5037333;28;20039;-73
2022/09/27 14:09:13;;;;;;;4.43;1.45;;;;;;;;;;5044180;28;20033;-73
2022/09/27 14:11:41;;;;;;;10.13;1.30;;;;;;;;;;5031486;28;20021;-70
2022/09/27 14:14:07;;;;;;;6.85;1.25;;;;;;;;;;5045872;28;20061;-71
2022/09/27 14:16:34;;;;;;;3.50;1.27;;;;;;;;;;5031389;28;20029;-70
2022/09/27 14:19:01;;;;;;;3.65;1.20;;;;;;;;;;5050692;28;20507;-71
2022/09/27 14:21:27;;;;;;;3.72;1.10;;;;;;;;;;5037300;28;20017;-70
2022/09/27 14:23:52;;;;;;;3.25;1.38;;;;;;;;;;5042723;28;20024;-72
2022/09/27 14:26:25;;;;;;;2.17;1.00;;;;;;;;;;5044424;28;20071;-71
2022/09/27 14:28:51;;;;;;;3.55;1.25;;;;;;;;;;5039058;28;20018;-71
2022/09/27 14:31:17;;;;;;;2.10;1.00;;;;;;;;;;5033442;28;20572;-68
2022/09/27 14:33:43;;;;;;;5.82;1.30;;;;;;;;;;5030331;28;20108;-70
2022/09/27 14:39:11;;;;;;;1.40;0.90;;;;;;;;;;5027133;28;20124;-72
2022/09/27 14:41:38;;;;;;;0.57;0.57;;;;;;;;;;5023415;28;20017;-70
2022/09/27 14:44:03;;;;;;;3.55;0.77;;;;;;;;;;5033077;28;20076;-71
2022/09/27 14:46:29;;;;;;;1.77;0.80;;;;;;;;;;5031420;28;20025;-67
2022/09/27 14:48:55;;;;;;;2.55;1.10;;;;;;;;;;5034927;28;20033;-71
2022/09/27 14:51:25;;;;;;;4.75;1.50;;;;;;;;;;5019984;28;20025;-71
2022/09/27 14:53:59;;;;;;;4.57;1.80;;;;;;;;;;5037261;28;20438;-68
2022/09/27 14:56:29;;;;;;;6.07;1.30;;;;;;;;;;5028746;28;20047;-69
2022/09/27 14:59:01;;;;;;;3.58;1.10;;;;;;;;;;5030236;28;20108;-70
2022/09/27 15:01:27;;;;;;;4.63;0.77;;;;;;;;;;5036222;28;20644;-69
2022/09/27 15:03:52;;;;;;;1.52;0.70;;;;;;;;;;5032375;28;20018;-70